createdAt,value
2023-01-08T00:02:00.440Z,100740.16
2023-01-08T00:05:03.450Z,100745.19
2023-01-08T00:08:08.436Z,100747.00
2023-01-08T00:11:12.080Z,100741.84
2023-01-08T00:14:14.721Z,100747.75
2023-01-08T00:17:17.613Z,100745.09
2023-01-08T00:20:20.248Z,100742.63
2023-01-08T00:23:23.476Z,100744.47
2023-01-08T00:26:26.276Z,100742.69
2023-01-08T00:29:29.524Z,100734.06
2023-01-08T00:32:32.018Z,100730.69
2023-01-08T00:35:34.903Z,100722.19
2023-01-08T00:38:37.842Z,100723.81
2023-01-08T00:41:44.263Z,100717.75
2023-01-08T00:44:46.955Z,100710.91
2023-01-08T00:47:49.841Z,100715.25
2023-01-08T00:50:53.911Z,100721.25
2023-01-08T00:53:56.762Z,100715.25
2023-01-08T00:56:59.391Z,100716.13
2023-01-08T01:00:02.902Z,100716.03
2023-01-08T01:03:06.344Z,100724.59
2023-01-08T01:06:11.492Z,100716.13
2023-01-08T01:09:14.041Z,100724.72
2023-01-08T01:12:17.012Z,100728.00
2023-01-08T01:15:19.592Z,100721.94
2023-01-08T01:18:22.383Z,100722.88
2023-01-08T01:21:28.162Z,100720.25
2023-01-08T01:24:31.085Z,100722.72
2023-01-08T01:27:33.833Z,100724.41
2023-01-08T01:30:36.904Z,100733.09
2023-01-08T01:33:40.583Z,100721.87
2023-01-08T01:36:43.566Z,100717.50
2023-01-08T01:39:49.081Z,100708.91
2023-01-08T01:42:51.985Z,100707.94
2023-01-08T01:45:58.525Z,100706.34
2023-01-08T01:49:15.430Z,100702.84
2023-01-08T01:52:18.018Z,100691.66
2023-01-08T01:55:21.093Z,100685.66
2023-01-08T01:58:26.666Z,100665.91
2023-01-08T02:01:32.185Z,100670.09
2023-01-08T02:04:35.176Z,100665.00
2023-01-08T02:08:14.887Z,100662.22
2023-01-08T02:11:26.472Z,100657.00
2023-01-08T02:14:38.969Z,100652.53
2023-01-08T02:17:50.816Z,100650.97
2023-01-08T02:21:06.238Z,100655.31
2023-01-08T02:24:11.584Z,100656.16
2023-01-08T02:27:16.458Z,100649.25
2023-01-08T02:30:19.483Z,100650.16
2023-01-08T02:33:23.760Z,100650.97
2023-01-08T02:36:40.437Z,100646.72
2023-01-08T02:40:15.708Z,100638.09
2023-01-08T02:43:26.193Z,100644.09
2023-01-08T02:46:31.653Z,100646.66
2023-01-08T02:49:39.030Z,100645.84
2023-01-08T02:52:54.089Z,100636.41
2023-01-08T02:56:01.620Z,100640.75
2023-01-08T02:59:07.610Z,100632.97
2023-01-08T03:02:11.960Z,100633.66
2023-01-08T03:05:23.808Z,100632.69
2023-01-08T03:08:27.681Z,100626.03
2023-01-08T03:11:38.115Z,100634.66
2023-01-08T03:14:55.981Z,100622.41
2023-01-08T03:18:04.525Z,100613.03
2023-01-08T03:21:07.494Z,100606.34
2023-01-08T03:24:13.322Z,100613.97
2023-01-08T03:27:21.504Z,100610.59
2023-01-08T03:30:24.870Z,100612.31
2023-01-08T03:33:30.369Z,100620.72
2023-01-08T03:36:35.952Z,100615.78
2023-01-08T03:39:45.874Z,100609.75
2023-01-08T03:42:48.944Z,100606.31
2023-01-08T03:45:58.531Z,100601.91
2023-01-08T03:49:02.532Z,100599.37
2023-01-08T03:52:05.286Z,100590.97
2023-01-08T03:55:08.526Z,100582.38
2023-01-08T03:58:11.106Z,100572.97
2023-01-08T04:01:14.397Z,100580.72
2023-01-08T04:04:17.907Z,100581.53
2023-01-08T04:07:20.732Z,100579.97
2023-01-08T04:10:26.868Z,100584.19
2023-01-08T04:13:29.700Z,100583.34
2023-01-08T04:16:34.734Z,100585.91
2023-01-08T04:19:37.815Z,100584.22
2023-01-08T04:22:40.860Z,100585.06
2023-01-08T04:25:43.562Z,100588.50
2023-01-08T04:28:46.403Z,100585.84
2023-01-08T04:31:49.246Z,100591.06
2023-01-08T04:34:52.098Z,100585.75
2023-01-08T04:37:54.614Z,100582.38
2023-01-08T04:40:58.954Z,100585.84
2023-01-08T04:44:01.456Z,100579.06
2023-01-08T04:47:04.749Z,100580.69
2023-01-08T04:50:07.951Z,100578.97
2023-01-08T04:53:10.905Z,100591.94
2023-01-08T04:56:13.965Z,100591.91
2023-01-08T04:59:16.841Z,100597.94
2023-01-08T05:02:19.944Z,100595.38
2023-01-08T05:05:22.943Z,100588.16
2023-01-08T05:08:25.496Z,100593.31
2023-01-08T05:11:28.411Z,100589.16
2023-01-08T05:14:30.973Z,100580.63
2023-01-08T05:17:33.859Z,100578.75
2023-01-08T05:20:36.572Z,100583.88
2023-01-08T05:23:39.730Z,100571.78
2023-01-08T05:26:42.326Z,100571.00
2023-01-08T05:29:45.216Z,100572.09
2023-01-08T05:32:47.841Z,100572.97
2023-01-08T05:35:50.660Z,100567.91
2023-01-08T05:38:53.257Z,100560.31
2023-01-08T05:41:56.183Z,100570.47
2023-01-08T05:44:58.835Z,100560.09
2023-01-08T05:48:06.974Z,100566.22
2023-01-08T05:51:09.603Z,100562.53
2023-01-08T05:54:12.510Z,100559.88
2023-01-08T05:57:15.091Z,100556.75
2023-01-08T06:00:18.186Z,100547.50
2023-01-08T06:03:22.596Z,100555.91
2023-01-08T06:06:25.259Z,100549.00
2023-01-08T06:09:28.125Z,100548.22
2023-01-08T06:12:30.659Z,100541.34
2023-01-08T06:15:38.066Z,100539.59
2023-01-08T06:18:40.854Z,100541.38
2023-01-08T06:21:43.766Z,100540.41
2023-01-08T06:24:46.341Z,100539.69
2023-01-08T06:27:52.646Z,100540.62
2023-01-08T06:30:58.397Z,100539.75
2023-01-08T06:34:01.539Z,100535.19
2023-01-08T06:37:04.103Z,100530.53
2023-01-08T06:40:07.383Z,100527.31
2023-01-08T06:43:09.925Z,100524.09
2023-01-08T06:46:13.102Z,100529.34
2023-01-08T06:49:17.461Z,100530.97
2023-01-08T06:52:20.310Z,100524.97
2023-01-08T06:55:24.306Z,100535.19
2023-01-08T06:58:28.351Z,100536.00
2023-01-08T07:01:31.274Z,100535.94
2023-01-08T07:04:34.284Z,100537.69
2023-01-08T07:07:36.862Z,100531.75
2023-01-08T07:10:39.796Z,100528.22
2023-01-08T07:13:42.440Z,100531.47
2023-01-08T07:16:45.853Z,100536.41
2023-01-08T07:19:48.989Z,100539.38
2023-01-08T07:22:51.953Z,100531.41
2023-01-08T07:25:54.606Z,100535.94
2023-01-08T07:28:57.524Z,100535.03
2023-01-08T07:32:00.351Z,100535.69
2023-01-08T07:35:03.357Z,100539.06
2023-01-08T07:38:05.960Z,100537.97
2023-01-08T07:41:09.348Z,100523.75
2023-01-08T07:44:12.385Z,100528.09
2023-01-08T07:47:15.309Z,100526.38
2023-01-08T07:50:17.980Z,100526.44
2023-01-08T07:53:20.941Z,100530.59
2023-01-08T07:56:25.349Z,100522.94
2023-01-08T07:59:28.307Z,100528.94
2023-01-08T08:02:31.147Z,100515.25
2023-01-08T08:05:34.867Z,100517.00
2023-01-08T08:08:37.566Z,100516.22
2023-01-08T08:11:40.492Z,100517.00
2023-01-08T08:14:43.117Z,100509.13
2023-01-08T08:17:47.382Z,100509.19
2023-01-08T08:20:52.053Z,100509.91
2023-01-08T08:23:55.828Z,100501.41
2023-01-08T08:26:58.371Z,100499.44
2023-01-08T08:30:01.362Z,100497.84
2023-01-08T08:33:05.629Z,100493.59
2023-01-08T08:36:09.094Z,100488.53
2023-01-08T08:39:11.899Z,100482.25
2023-01-08T08:42:15.157Z,100482.16
2023-01-08T08:45:17.875Z,100479.44
2023-01-08T08:48:20.791Z,100476.12
2023-01-08T08:51:23.380Z,100474.41
2023-01-08T08:54:26.216Z,100477.87
2023-01-08T08:57:28.985Z,100470.19
2023-01-08T09:00:31.964Z,100477.56
2023-01-08T09:03:35.315Z,100475.56
2023-01-08T09:06:38.246Z,100477.28
2023-01-08T09:09:40.942Z,100474.69
2023-01-08T09:12:44.272Z,100472.78
2023-01-08T09:15:46.818Z,100472.78
2023-01-08T09:18:50.292Z,100462.19
2023-01-08T09:21:53.142Z,100469.41
2023-01-08T09:24:56.065Z,100474.34
2023-01-08T09:28:06.871Z,100463.94
2023-01-08T09:31:09.799Z,100463.63
2023-01-08T09:34:13.110Z,100453.97
2023-01-08T09:37:16.881Z,100451.03
2023-01-08T09:40:22.559Z,100452.31
2023-01-08T09:43:30.629Z,100447.31
2023-01-08T09:46:34.545Z,100445.56
2023-01-08T09:49:45.616Z,100446.84
2023-01-08T09:52:48.604Z,100432.97
2023-01-08T09:56:09.819Z,100415.31
2023-01-08T09:59:17.757Z,100414.31
2023-01-08T10:02:23.985Z,100401.72
2023-01-08T10:05:28.459Z,100409.50
2023-01-08T10:08:31.045Z,100393.66
2023-01-08T10:11:41.175Z,100387.84
2023-01-08T10:14:50.084Z,100378.63
2023-01-08T10:18:04.126Z,100373.25
2023-01-08T10:21:11.783Z,100373.16
2023-01-08T10:24:14.745Z,100367.91
2023-01-08T10:27:20.697Z,100363.25
2023-01-08T10:30:28.698Z,100355.41
2023-01-08T10:33:48.993Z,100359.94
2023-01-08T10:36:53.604Z,100352.81
2023-01-08T10:40:26.585Z,100343.88
2023-01-08T10:43:33.695Z,100346.56
2023-01-08T10:46:48.213Z,100336.47
2023-01-08T10:49:53.727Z,100324.50
2023-01-08T10:52:59.784Z,100322.63
2023-01-08T10:56:05.347Z,100322.25
2023-01-08T10:59:19.144Z,100323.72
2023-01-08T11:02:32.959Z,100316.22
2023-01-08T11:05:38.459Z,100315.47
2023-01-08T11:08:51.667Z,100305.66
2023-01-08T11:11:55.105Z,100309.97
2023-01-08T11:14:58.102Z,100299.00
2023-01-08T11:18:10.863Z,100291.37
2023-01-08T11:21:23.737Z,100287.94
2023-01-08T11:24:32.845Z,100278.88
2023-01-08T11:27:39.522Z,100270.66
2023-01-08T11:30:50.224Z,100265.38
2023-01-08T11:33:58.861Z,100257.72
2023-01-08T11:37:13.984Z,100250.09
2023-01-08T11:40:21.853Z,100241.09
2023-01-08T11:43:33.414Z,100240.22
2023-01-08T11:46:51.465Z,100237.16
2023-01-08T11:50:03.032Z,100232.81
2023-01-08T11:53:27.944Z,100235.19
2023-01-08T11:57:08.976Z,100230.28
2023-01-08T12:00:45.779Z,100229.69
2023-01-08T12:04:29.878Z,100221.69
2023-01-08T12:07:35.611Z,100207.19
2023-01-08T12:11:02.227Z,100203.56
2023-01-08T12:14:25.498Z,100215.72
2023-01-08T12:18:02.797Z,100204.62
2023-01-08T12:21:14.660Z,100216.22
2023-01-08T12:24:42.783Z,100209.81
2023-01-08T12:27:59.437Z,100204.22
2023-01-08T12:31:11.573Z,100207.28
2023-01-08T12:34:34.180Z,100208.31
2023-01-08T12:37:52.789Z,100202.28
2023-01-08T12:41:06.490Z,100199.03
2023-01-08T12:44:12.167Z,100200.06
2023-01-08T12:47:22.232Z,100191.88
2023-01-08T12:50:46.894Z,100189.41
2023-01-08T12:54:08.280Z,100190.34
2023-01-08T12:57:37.339Z,100185.87
2023-01-08T13:00:49.232Z,100187.00
2023-01-08T13:03:54.964Z,100182.06
2023-01-08T13:07:04.233Z,100189.87
2023-01-08T13:10:09.404Z,100177.13
2023-01-08T13:13:36.648Z,100181.94
2023-01-08T13:16:41.590Z,100178.75
2023-01-08T13:19:51.261Z,100178.91
2023-01-08T13:22:57.981Z,100179.72
2023-01-08T13:26:03.445Z,100176.81
2023-01-08T13:29:22.367Z,100174.81
2023-01-08T13:32:28.026Z,100177.69
2023-01-08T13:35:32.011Z,100180.34
2023-01-08T13:38:34.654Z,100182.97
2023-01-08T13:41:42.535Z,100174.72
2023-01-08T13:45:00.551Z,100176.19
2023-01-08T13:48:03.748Z,100166.84
2023-01-08T13:51:07.126Z,100168.44
2023-01-08T13:54:13.162Z,100165.41
2023-01-08T13:57:18.723Z,100161.94
2023-01-08T14:00:25.518Z,100164.69
2023-01-08T14:03:34.536Z,100157.31
2023-01-08T14:06:38.073Z,100170.31
2023-01-08T14:09:41.146Z,100165.53
2023-01-08T14:12:44.106Z,100174.31
2023-01-08T14:15:48.308Z,100161.81
2023-01-08T14:18:51.929Z,100180.22
2023-01-08T14:21:57.850Z,100166.00
2023-01-08T14:25:07.999Z,100175.00
2023-01-08T14:28:17.994Z,100165.06
2023-01-08T14:31:26.653Z,100166.94
2023-01-08T14:34:31.825Z,100172.34
2023-01-08T14:37:34.417Z,100176.37
2023-01-08T14:40:41.933Z,100169.69
2023-01-08T14:43:47.281Z,100169.47
2023-01-08T14:46:50.278Z,100172.03
2023-01-08T14:49:54.183Z,100157.50
2023-01-08T14:53:04.929Z,100165.19
2023-01-08T14:56:11.991Z,100163.63
2023-01-08T14:59:19.490Z,100162.06
2023-01-08T15:02:26.970Z,100158.78
2023-01-08T15:05:32.913Z,100160.44
2023-01-08T15:08:41.816Z,100148.66
2023-01-08T15:11:56.163Z,100152.19
2023-01-08T15:15:12.474Z,100153.00
2023-01-08T15:18:15.338Z,100160.84
2023-01-08T15:21:19.972Z,100145.44
2023-01-08T15:24:27.558Z,100148.78
2023-01-08T15:27:37.079Z,100141.94
2023-01-08T15:30:45.690Z,100147.84
2023-01-08T15:33:48.229Z,100146.19
2023-01-08T15:36:51.106Z,100138.47
2023-01-08T15:39:53.777Z,100134.03
2023-01-08T15:43:11.882Z,100138.25
2023-01-08T15:46:16.073Z,100131.19
2023-01-08T15:49:19.135Z,100126.13
2023-01-08T15:52:25.184Z,100131.19
2023-01-08T15:55:28.138Z,100110.69
2023-01-08T15:58:30.715Z,100109.81
2023-01-08T16:01:34.360Z,100114.78
2023-01-08T16:04:37.259Z,100121.53
2023-01-08T16:07:42.338Z,100111.87
2023-01-08T16:10:45.454Z,100116.91
2023-01-08T16:13:48.141Z,100108.63
2023-01-08T16:16:51.567Z,100110.56
2023-01-08T16:19:54.152Z,100109.62
2023-01-08T16:22:57.263Z,100097.47
2023-01-08T16:25:59.882Z,100103.62
2023-01-08T16:29:02.801Z,100099.44
2023-01-08T16:32:05.669Z,100099.31
2023-01-08T16:35:09.551Z,100092.56
2023-01-08T16:38:15.296Z,100090.78
2023-01-08T16:41:18.245Z,100090.78
2023-01-08T16:44:26.829Z,100095.78
2023-01-08T16:47:30.242Z,100089.78
2023-01-08T16:50:33.064Z,100088.94
2023-01-08T16:53:36.848Z,100092.28
2023-01-08T16:56:39.683Z,100087.13
2023-01-08T16:59:42.753Z,100090.47
2023-01-08T17:02:45.385Z,100083.75
2023-01-08T17:05:49.091Z,100079.25
2023-01-08T17:08:51.925Z,100083.66
2023-01-08T17:11:55.563Z,100068.97
2023-01-08T17:14:58.391Z,100068.94
2023-01-08T17:18:01.551Z,100072.19
2023-01-08T17:21:05.989Z,100070.47
2023-01-08T17:24:09.578Z,100063.38
2023-01-08T17:27:12.562Z,100077.16
2023-01-08T17:30:15.772Z,100068.50
2023-01-08T17:33:21.063Z,100068.59
2023-01-08T17:36:26.576Z,100064.28
2023-01-08T17:39:29.204Z,100058.06
2023-01-08T17:42:32.241Z,100057.37
2023-01-08T17:45:38.645Z,100047.00
2023-01-08T17:48:44.933Z,100056.59
2023-01-08T17:51:47.872Z,100061.69
2023-01-08T17:54:51.953Z,100055.69
2023-01-08T17:57:54.656Z,100045.59
2023-01-08T18:00:57.550Z,100049.69
2023-01-08T18:04:01.555Z,100054.72
2023-01-08T18:07:04.294Z,100054.81
2023-01-08T18:10:08.170Z,100049.75
2023-01-08T18:13:11.553Z,100051.53
2023-01-08T18:16:15.142Z,100050.37
2023-01-08T18:19:18.251Z,100045.50
2023-01-08T18:22:21.886Z,100051.75
2023-01-08T18:25:24.623Z,100052.62
2023-01-08T18:28:29.683Z,100048.91
2023-01-08T18:31:32.474Z,100053.13
2023-01-08T18:34:35.650Z,100041.00
2023-01-08T18:37:38.276Z,100055.69
2023-01-08T18:40:45.398Z,100055.59
2023-01-08T18:43:48.242Z,100051.09
2023-01-08T18:46:51.382Z,100044.28
2023-01-08T18:49:59.940Z,100052.97
2023-01-08T18:53:04.654Z,100046.91
2023-01-08T18:56:08.918Z,100053.91
2023-01-08T18:59:12.621Z,100050.28
2023-01-08T19:02:33.537Z,100047.75
2023-01-08T19:05:44.012Z,100049.59
2023-01-08T19:08:46.875Z,100047.81
2023-01-08T19:11:49.987Z,100037.09
2023-01-08T19:14:53.614Z,100039.94
2023-01-08T19:17:56.749Z,100036.47
2023-01-08T19:21:00.174Z,100031.41
2023-01-08T19:24:03.586Z,100038.34
2023-01-08T19:27:06.216Z,100039.94
2023-01-08T19:30:09.952Z,100039.12
2023-01-08T19:33:13.300Z,100031.31
2023-01-08T19:36:18.670Z,100029.66
2023-01-08T19:39:22.483Z,100020.19
2023-01-08T19:42:44.277Z,100026.16
2023-01-08T19:45:47.201Z,100025.41
2023-01-08T19:48:50.515Z,100016.78
2023-01-08T19:51:53.406Z,100010.69
2023-01-08T19:54:58.268Z,100018.47
2023-01-08T19:58:01.009Z,100018.66
2023-01-08T20:01:19.600Z,100022.09
2023-01-08T20:04:22.773Z,100010.97
2023-01-08T20:07:25.466Z,100012.66
2023-01-08T20:10:28.797Z,100005.75
2023-01-08T20:13:33.979Z,100008.16
2023-01-08T20:16:36.997Z,100003.00
2023-01-08T20:19:40.269Z,99997.84
2023-01-08T20:22:43.548Z,99991.63
2023-01-08T20:25:46.595Z,99996.75
2023-01-08T20:28:50.523Z,99990.88
2023-01-08T20:31:56.996Z,99992.78
2023-01-08T20:35:00.314Z,99989.34
2023-01-08T20:38:03.600Z,99990.16
2023-01-08T20:41:07.041Z,99993.53
2023-01-08T20:44:11.216Z,99983.13
2023-01-08T20:47:14.359Z,99989.22
2023-01-08T20:50:20.366Z,99982.31
2023-01-08T20:53:23.921Z,99972.78
2023-01-08T20:56:27.300Z,99970.87
2023-01-08T20:59:30.303Z,99965.25
2023-01-08T21:02:33.208Z,99965.63
2023-01-08T21:05:37.940Z,99969.28
2023-01-08T21:08:41.820Z,99973.16
2023-01-08T21:11:44.821Z,99964.09
2023-01-08T21:14:47.514Z,99961.22
2023-01-08T21:17:51.142Z,99961.88
2023-01-08T21:21:05.195Z,99961.44
2023-01-08T21:24:09.792Z,99958.31
2023-01-08T21:27:12.604Z,99954.03
2023-01-08T21:30:15.718Z,99949.16
2023-01-08T21:33:18.889Z,99954.44
2023-01-08T21:36:23.599Z,99941.72
2023-01-08T21:39:26.423Z,99947.59
2023-01-08T21:42:47.565Z,99949.28
2023-01-08T21:46:00.263Z,99943.06
2023-01-08T21:49:03.271Z,99942.06
2023-01-08T21:52:25.290Z,99937.88
2023-01-08T21:55:28.161Z,99929.56
2023-01-08T21:58:31.736Z,99928.81
2023-01-08T22:01:34.696Z,99927.53
2023-01-08T22:04:37.599Z,99928.00
2023-01-08T22:07:40.310Z,99922.31
2023-01-08T22:10:43.254Z,99911.75
2023-01-08T22:13:45.923Z,99913.09
2023-01-08T22:16:48.816Z,99911.31
2023-01-08T22:19:52.108Z,99914.50
2023-01-08T22:22:55.060Z,99919.06
2023-01-08T22:25:57.803Z,99911.97
2023-01-08T22:29:02.069Z,99914.88
2023-01-08T22:32:05.512Z,99911.03
2023-01-08T22:35:08.671Z,99906.06
2023-01-08T22:38:11.295Z,99899.31
2023-01-08T22:41:16.918Z,99899.03
2023-01-08T22:44:19.553Z,99892.97
2023-01-08T22:47:22.698Z,99891.97
2023-01-08T22:50:25.628Z,99892.09
2023-01-08T22:53:28.674Z,99880.75
2023-01-08T22:56:31.386Z,99873.28
2023-01-08T22:59:34.443Z,99876.28
2023-01-08T23:02:37.660Z,99868.06
2023-01-08T23:05:40.961Z,99869.19
2023-01-08T23:08:44.764Z,99868.44
2023-01-08T23:11:47.794Z,99852.81
2023-01-08T23:14:50.362Z,99852.59
2023-01-08T23:17:53.347Z,99843.75
2023-01-08T23:21:08.069Z,99847.66
2023-01-08T23:24:14.410Z,99846.69
2023-01-08T23:27:16.981Z,99840.09
2023-01-08T23:30:20.109Z,99839.22
2023-01-08T23:33:22.757Z,99827.63
2023-01-08T23:36:26.035Z,99832.78
2023-01-08T23:39:29.017Z,99834.88
2023-01-08T23:42:32.233Z,99835.88
2023-01-08T23:45:36.492Z,99826.00
2023-01-08T23:48:40.144Z,99833.09
2023-01-08T23:51:42.945Z,99835.88
2023-01-08T23:54:45.723Z,99827.72
2023-01-08T23:57:48.450Z,99821.66
